createdAt,value
2022-09-01T00:00:14.996Z,2.20
2022-09-01T00:02:43.289Z,2.20
2022-09-01T00:05:30.093Z,2.38
2022-09-01T00:07:56.970Z,2.40
2022-09-01T00:10:24.811Z,1.92
2022-09-01T00:12:51.736Z,2.50
2022-09-01T00:15:18.598Z,2.40
2022-09-01T00:17:45.432Z,2.45
2022-09-01T00:20:31.053Z,2.00
2022-09-01T00:22:57.958Z,2.00
2022-09-01T00:25:24.937Z,3.03
2022-09-01T00:30:36.805Z,2.28
2022-09-01T00:33:03.756Z,1.90
2022-09-01T00:35:30.675Z,2.72
2022-09-01T00:38:03.885Z,2.50
2022-09-01T00:40:31.410Z,2.58
2022-09-01T00:42:58.324Z,2.20
2022-09-01T00:45:25.202Z,2.53
2022-09-01T00:47:52.127Z,2.17
2022-09-01T00:50:20.884Z,2.28
2022-09-01T00:52:52.209Z,2.05
2022-09-01T00:55:30.069Z,2.35
2022-09-01T00:58:02.067Z,2.25
2022-09-01T01:00:32.586Z,2.55
2022-09-01T01:02:59.729Z,2.58
2022-09-01T01:05:33.225Z,2.03
2022-09-01T01:08:03.508Z,2.58
2022-09-01T01:10:49.693Z,2.50
2022-09-01T01:13:17.397Z,1.77
2022-09-01T01:15:44.955Z,2.45
2022-09-01T01:18:34.663Z,1.70
2022-09-01T01:21:24.828Z,2.60
2022-09-01T01:24:01.405Z,2.55
2022-09-01T01:26:28.717Z,2.60
2022-09-01T01:28:56.165Z,2.88
2022-09-01T01:31:24.775Z,2.60
2022-09-01T01:33:56.775Z,2.72
2022-09-01T01:36:36.382Z,2.88
2022-09-01T01:39:12.685Z,1.95
2022-09-01T01:41:43.922Z,2.35
2022-09-01T01:44:14.236Z,3.25
2022-09-01T01:46:44.237Z,2.10
2022-09-01T01:49:13.388Z,2.20
2022-09-01T01:51:42.051Z,2.67
2022-09-01T01:54:10.793Z,2.20
2022-09-01T01:56:39.848Z,2.17
2022-09-01T01:59:07.221Z,2.00
2022-09-01T02:01:36.133Z,2.17
2022-09-01T02:04:05.782Z,2.13
2022-09-01T02:06:34.825Z,1.92
2022-09-01T02:09:04.256Z,2.17
2022-09-01T02:11:34.239Z,1.70
2022-09-01T02:14:01.746Z,2.03
2022-09-01T02:16:47.295Z,2.17
2022-09-01T02:19:14.466Z,1.80
2022-09-01T02:22:00.379Z,1.75
2022-09-01T02:24:29.399Z,1.77
2022-09-01T02:26:56.840Z,1.73
2022-09-01T02:29:29.531Z,1.73
2022-09-01T02:31:57.646Z,1.23
2022-09-01T02:34:27.704Z,1.47
2022-09-01T02:36:57.036Z,1.35
2022-09-01T02:39:29.351Z,1.60
2022-09-01T02:41:57.022Z,1.17
2022-09-01T02:44:29.128Z,1.83
2022-09-01T02:46:58.970Z,1.52
2022-09-01T02:50:04.302Z,1.48
2022-09-01T02:52:37.110Z,1.88
2022-09-01T02:55:05.083Z,2.25
2022-09-01T02:57:34.551Z,2.10
2022-09-01T03:00:20.851Z,2.53
2022-09-01T03:02:51.509Z,2.42
2022-09-01T03:05:25.448Z,2.10
2022-09-01T03:07:56.665Z,2.27
2022-09-01T03:10:35.885Z,2.38
2022-09-01T03:13:16.310Z,2.20
2022-09-01T03:16:02.372Z,2.13
2022-09-01T03:18:29.334Z,2.60
2022-09-01T03:20:57.654Z,2.25
2022-09-01T03:23:28.221Z,2.43
2022-09-01T03:25:56.014Z,1.50
2022-09-01T03:28:24.469Z,2.37
2022-09-01T03:30:54.430Z,1.90
2022-09-01T03:33:42.748Z,2.47
2022-09-01T03:36:20.320Z,2.10
2022-09-01T03:38:52.573Z,2.03
2022-09-01T03:44:12.167Z,1.77
2022-09-01T03:46:40.564Z,2.00
2022-09-01T03:49:08.181Z,2.03
2022-09-01T03:52:00.471Z,2.78
2022-09-01T03:54:30.540Z,2.27
2022-09-01T03:57:00.398Z,2.30
2022-09-01T03:59:28.545Z,2.10
2022-09-01T04:01:56.899Z,2.60
2022-09-01T04:04:24.689Z,2.07
2022-09-01T04:06:52.776Z,2.37
2022-09-01T04:09:20.565Z,2.30
2022-09-01T04:12:06.834Z,2.33
2022-09-01T04:14:35.081Z,2.33
2022-09-01T04:17:20.538Z,1.97
2022-09-01T04:19:47.581Z,2.20
2022-09-01T04:22:37.894Z,1.90
2022-09-01T04:25:41.861Z,2.00
2022-09-01T04:28:17.680Z,2.10
2022-09-01T04:30:45.250Z,1.73
2022-09-01T04:33:17.482Z,1.73
2022-09-01T04:35:44.540Z,1.70
2022-09-01T04:38:49.399Z,2.10
2022-09-01T04:41:17.883Z,1.73
2022-09-01T04:44:04.977Z,2.17
2022-09-01T04:46:39.157Z,1.90
2022-09-01T04:49:13.294Z,1.85
2022-09-01T04:51:45.210Z,1.77
2022-09-01T04:54:14.751Z,2.13
2022-09-01T04:56:45.098Z,2.20
2022-09-01T04:59:14.872Z,1.83
2022-09-01T05:01:45.721Z,2.00
2022-09-01T05:04:21.354Z,2.37
2022-09-01T05:06:57.161Z,2.13
2022-09-01T05:09:27.199Z,2.40
2022-09-01T05:12:12.916Z,2.27
2022-09-01T05:14:48.808Z,1.57
2022-09-01T05:17:21.621Z,1.83
2022-09-01T05:19:51.219Z,2.17
2022-09-01T05:22:23.078Z,2.30
2022-09-01T05:25:05.061Z,2.43
2022-09-01T05:27:50.810Z,2.27
2022-09-01T05:30:20.254Z,2.17
2022-09-01T05:32:49.208Z,1.90
2022-09-01T05:35:17.588Z,1.80
2022-09-01T05:37:44.844Z,2.10
2022-09-01T05:43:02.752Z,1.93
2022-09-01T05:45:40.282Z,2.33
2022-09-01T05:48:39.943Z,2.60
2022-09-01T05:51:27.559Z,2.77
2022-09-01T05:57:17.771Z,2.47
2022-09-01T05:59:54.268Z,2.67
2022-09-01T06:02:27.351Z,1.93
2022-09-01T06:04:57.474Z,1.90
2022-09-01T06:07:30.416Z,2.20
2022-09-01T06:10:01.278Z,2.77
2022-09-01T06:12:29.137Z,1.80
2022-09-01T06:14:56.851Z,2.40
2022-09-01T06:17:26.843Z,2.17
2022-09-01T06:19:57.989Z,2.45
2022-09-01T06:22:44.857Z,1.67
2022-09-01T06:25:12.063Z,1.63
2022-09-01T06:27:45.918Z,2.40
2022-09-01T06:30:33.060Z,2.13
2022-09-01T06:33:10.954Z,2.10
2022-09-01T06:35:47.214Z,2.40
2022-09-01T06:38:17.659Z,2.37
2022-09-01T06:40:47.542Z,2.20
2022-09-01T06:43:19.627Z,2.67
2022-09-01T06:45:54.912Z,2.57
2022-09-01T06:49:20.141Z,2.80
2022-09-01T06:51:49.824Z,2.50
2022-09-01T06:54:21.252Z,2.90
2022-09-01T06:56:51.273Z,3.33
2022-09-01T06:59:21.893Z,2.53
2022-09-01T07:02:01.361Z,2.08
2022-09-01T07:04:50.037Z,1.88
2022-09-01T07:13:38.814Z,1.90
2022-09-01T07:18:58.863Z,1.95
2022-09-01T07:22:06.829Z,2.10
2022-09-01T07:24:34.711Z,1.75
2022-09-01T07:27:41.616Z,1.77
2022-09-01T07:30:10.741Z,1.48
2022-09-01T07:32:44.017Z,1.77
2022-09-01T07:35:13.013Z,2.10
2022-09-01T07:43:37.641Z,1.83
2022-09-01T07:46:40.996Z,1.52
2022-09-01T07:49:34.739Z,1.35
2022-09-01T07:52:16.162Z,1.77
2022-09-01T07:54:54.408Z,1.15
2022-09-01T07:57:23.089Z,1.73
2022-09-01T07:59:55.503Z,1.48
2022-09-01T08:02:41.194Z,1.15
2022-09-01T08:05:11.727Z,1.60
2022-09-01T08:07:55.372Z,1.30
2022-09-01T08:10:48.991Z,1.40
2022-09-01T08:13:18.982Z,1.23
2022-09-01T08:18:52.599Z,1.17
2022-09-01T08:21:36.215Z,1.33
2022-09-01T08:24:07.374Z,1.63
2022-09-01T08:26:36.785Z,1.85
2022-09-01T08:29:05.221Z,1.02
2022-09-01T08:31:36.704Z,0.98
2022-09-01T08:34:06.933Z,1.13
2022-09-01T08:36:35.422Z,1.10
2022-09-01T08:39:03.266Z,1.40
2022-09-01T08:42:10.501Z,1.00
2022-09-01T08:44:44.837Z,1.45
2022-09-01T08:47:16.664Z,1.30
2022-09-01T08:49:47.620Z,1.25
2022-09-01T08:52:35.166Z,1.20
2022-09-01T08:55:32.147Z,1.15
2022-09-01T08:58:00.932Z,1.30
2022-09-01T09:00:54.911Z,1.38
2022-09-01T09:04:04.701Z,1.50
2022-09-01T09:06:55.474Z,0.93
2022-09-01T09:09:35.638Z,1.17
2022-09-01T09:12:50.650Z,1.30
2022-09-01T09:15:27.574Z,1.00
2022-09-01T09:18:20.159Z,1.40
2022-09-01T09:23:45.573Z,1.42
2022-09-01T09:26:16.766Z,1.67
2022-09-01T09:28:50.130Z,1.58
2022-09-01T09:31:26.122Z,1.15
2022-09-01T09:34:32.931Z,1.13
2022-09-01T09:37:27.963Z,1.30
2022-09-01T09:40:29.788Z,1.40
2022-09-01T09:42:56.689Z,1.10
2022-09-01T09:45:35.289Z,1.33
2022-09-01T09:48:29.141Z,1.20
2022-09-01T09:51:21.122Z,1.08
2022-09-01T09:53:48.764Z,1.13
2022-09-01T09:56:15.582Z,1.10
2022-09-01T09:58:46.653Z,1.10
2022-09-01T10:01:29.704Z,0.70
2022-09-01T10:04:00.388Z,0.85
2022-09-01T10:06:47.469Z,0.57
2022-09-01T10:09:36.018Z,1.00
2022-09-01T10:12:05.641Z,1.40
2022-09-01T10:15:05.460Z,2.47
2022-09-01T10:17:43.527Z,1.25
2022-09-01T10:20:21.196Z,1.00
2022-09-01T10:22:50.835Z,2.42
2022-09-01T10:25:21.075Z,1.83
2022-09-01T10:27:54.849Z,1.48
2022-09-01T10:30:22.862Z,1.40
2022-09-01T10:32:56.153Z,1.60
2022-09-01T10:35:33.871Z,2.15
2022-09-01T10:38:08.038Z,1.48
2022-09-01T10:40:49.220Z,1.85
2022-09-01T10:43:37.931Z,1.10
2022-09-01T10:46:38.846Z,1.40
2022-09-01T10:49:29.725Z,1.80
2022-09-01T10:52:03.664Z,2.03
2022-09-01T11:03:56.427Z,1.85
2022-09-01T11:09:45.061Z,1.75
2022-09-01T11:12:15.302Z,1.33
2022-09-01T11:14:58.354Z,1.35
2022-09-01T11:17:36.625Z,1.48
2022-09-01T11:20:24.655Z,1.40
2022-09-01T11:22:57.561Z,1.70
2022-09-01T11:25:41.280Z,2.08
2022-09-01T11:28:23.416Z,0.95
2022-09-01T11:31:11.282Z,1.38
2022-09-01T11:33:42.780Z,1.42
2022-09-01T11:36:36.136Z,1.67
2022-09-01T11:39:44.038Z,1.70
2022-09-01T11:42:19.089Z,1.60
2022-09-01T11:45:10.567Z,1.52
2022-09-01T11:47:45.888Z,1.15
2022-09-01T11:50:23.856Z,1.38
2022-09-01T11:53:02.583Z,0.95
2022-09-01T11:55:36.460Z,0.93
2022-09-01T11:58:04.348Z,1.50
2022-09-01T12:00:38.487Z,1.08
2022-09-01T12:03:21.078Z,1.30
2022-09-01T12:06:09.569Z,1.40
2022-09-01T12:08:42.777Z,1.67
2022-09-01T12:11:20.365Z,1.27
2022-09-01T12:14:11.577Z,1.25
2022-09-01T12:16:42.568Z,1.20
2022-09-01T12:19:23.645Z,1.17
2022-09-01T12:21:59.808Z,1.35
2022-09-01T12:24:31.983Z,1.13
2022-09-01T12:26:59.436Z,1.77
2022-09-01T12:29:31.453Z,0.93
2022-09-01T12:32:00.469Z,1.65
2022-09-01T12:34:37.781Z,1.38
2022-09-01T12:37:16.588Z,1.25
2022-09-01T12:39:49.402Z,1.48
2022-09-01T12:42:40.997Z,1.55
2022-09-01T12:45:11.767Z,1.30
2022-09-01T12:47:40.968Z,1.38
2022-09-01T12:50:32.332Z,1.35
2022-09-01T12:53:02.081Z,1.48
2022-09-01T12:55:47.816Z,1.08
2022-09-01T12:58:25.230Z,0.93
2022-09-01T13:01:23.503Z,1.10
2022-09-01T13:04:15.133Z,0.90
2022-09-01T13:06:42.498Z,0.98
2022-09-01T13:09:11.951Z,0.73
2022-09-01T13:14:26.661Z,0.90
2022-09-01T13:16:53.574Z,0.63
2022-09-01T13:19:27.817Z,0.98
2022-09-01T13:21:56.986Z,1.20
2022-09-01T13:24:28.507Z,0.80
2022-09-01T13:29:45.099Z,1.10
2022-09-01T13:32:20.959Z,0.68
2022-09-01T13:34:51.954Z,0.50
2022-09-01T13:37:39.449Z,1.00
2022-09-01T13:40:25.247Z,0.85
2022-09-01T13:43:11.830Z,0.80
2022-09-01T13:45:41.874Z,1.13
2022-09-01T13:48:17.327Z,1.20
2022-09-01T13:51:18.946Z,0.80
2022-09-01T13:53:46.056Z,0.93
2022-09-01T13:56:12.881Z,0.82
2022-09-01T13:58:39.800Z,1.77
2022-09-01T14:01:06.691Z,1.25
2022-09-01T14:03:35.755Z,1.30
2022-09-01T14:06:03.069Z,0.80
2022-09-01T14:08:31.454Z,0.93
2022-09-01T14:10:58.330Z,0.90
2022-09-01T14:13:25.711Z,1.02
2022-09-01T14:15:53.855Z,0.85
2022-09-01T14:18:22.302Z,1.02
2022-09-01T14:21:26.829Z,0.98
2022-09-01T14:23:54.062Z,0.93
2022-09-01T14:26:39.230Z,1.00
2022-09-01T14:29:06.121Z,1.20
2022-09-01T14:31:34.382Z,0.93
2022-09-01T14:34:01.192Z,1.10
2022-09-01T14:37:05.926Z,1.80
2022-09-01T14:39:33.089Z,1.10
2022-09-01T14:42:00.336Z,0.98
2022-09-01T14:44:27.212Z,0.73
2022-09-01T14:47:19.116Z,1.02
2022-09-01T14:49:47.904Z,0.85
2022-09-01T14:52:15.277Z,0.68
2022-09-01T14:54:42.909Z,1.00
2022-09-01T14:59:57.362Z,0.68
2022-09-01T15:02:25.862Z,0.65
2022-09-01T15:04:52.831Z,1.00
2022-09-01T15:07:19.833Z,0.68
2022-09-01T15:09:46.802Z,0.70
2022-09-01T15:12:13.733Z,0.98
2022-09-01T15:14:40.618Z,1.30
2022-09-01T15:17:07.872Z,0.90
2022-09-01T15:19:34.802Z,0.70
2022-09-01T15:22:02.275Z,0.80
2022-09-01T15:24:29.254Z,0.50
2022-09-01T15:26:56.288Z,0.98
2022-09-01T15:29:23.136Z,0.70
2022-09-01T15:32:08.902Z,0.60
2022-09-01T15:34:47.921Z,0.50
2022-09-01T15:37:16.150Z,0.45
2022-09-01T15:40:01.557Z,0.73
2022-09-01T15:42:47.289Z,1.20
2022-09-01T15:45:17.651Z,0.90
2022-09-01T15:47:46.007Z,0.85
2022-09-01T15:50:16.885Z,0.70
2022-09-01T15:53:01.652Z,0.98
2022-09-01T15:55:31.864Z,0.82
2022-09-01T15:57:59.052Z,0.85
2022-09-01T16:00:27.623Z,0.75
2022-09-01T16:02:57.676Z,0.73
2022-09-01T16:05:25.996Z,0.90
2022-09-01T16:07:57.358Z,1.02
2022-09-01T16:10:25.685Z,0.70
2022-09-01T16:12:52.700Z,0.90
2022-09-01T16:15:22.345Z,1.10
2022-09-01T16:18:27.784Z,1.00
2022-09-01T16:21:10.175Z,0.75
2022-09-01T16:23:44.046Z,0.70
2022-09-01T16:26:12.185Z,0.63
2022-09-01T16:28:39.654Z,0.70
2022-09-01T16:31:30.708Z,1.23
2022-09-01T16:34:03.680Z,0.80
2022-09-01T16:36:49.130Z,0.75
2022-09-01T16:39:25.661Z,0.88
2022-09-01T16:42:22.260Z,0.77
2022-09-01T16:45:10.923Z,0.80
2022-09-01T16:47:40.453Z,0.63
2022-09-01T16:50:29.062Z,0.98
2022-09-01T16:53:20.458Z,0.90
2022-09-01T16:56:08.069Z,0.60
2022-09-01T16:59:03.290Z,1.30
2022-09-01T17:01:35.913Z,0.80
2022-09-01T17:04:06.195Z,0.82
2022-09-01T17:06:57.299Z,1.48
2022-09-01T17:09:24.130Z,0.80
2022-09-01T17:11:58.100Z,1.38
2022-09-01T17:14:40.749Z,1.00
2022-09-01T17:17:38.535Z,0.90
2022-09-01T17:20:07.223Z,0.82
2022-09-01T17:22:36.554Z,0.88
2022-09-01T17:25:33.578Z,0.60
2022-09-01T17:28:04.502Z,1.05
2022-09-01T17:30:36.322Z,1.10
2022-09-01T17:33:27.337Z,0.80
2022-09-01T17:36:05.588Z,0.85
2022-09-01T17:39:01.077Z,0.85
2022-09-01T17:41:54.640Z,0.85
2022-09-01T17:44:30.873Z,0.85
2022-09-01T17:47:20.254Z,0.50
2022-09-01T17:50:15.276Z,0.75
2022-09-01T17:52:57.469Z,1.05
2022-09-01T17:55:52.266Z,1.10
2022-09-01T17:58:39.457Z,0.90
2022-09-01T18:01:19.908Z,1.10
2022-09-01T18:04:12.853Z,0.90
2022-09-01T18:06:42.366Z,0.50
2022-09-01T18:09:14.412Z,1.27
2022-09-01T18:11:47.187Z,1.25
2022-09-01T18:14:16.875Z,0.68
2022-09-01T18:17:09.888Z,0.70
2022-09-01T18:19:40.220Z,0.60
2022-09-01T18:22:13.833Z,1.10
2022-09-01T18:25:02.462Z,0.65
2022-09-01T18:27:33.571Z,0.85
2022-09-01T18:30:01.458Z,0.93
2022-09-01T18:32:42.732Z,0.63
2022-09-01T18:35:31.098Z,0.60
2022-09-01T18:38:28.702Z,0.68
2022-09-01T18:41:16.243Z,0.57
2022-09-01T18:44:04.627Z,1.00
2022-09-01T18:46:49.671Z,0.77
2022-09-01T18:49:30.778Z,0.75
2022-09-01T18:52:43.059Z,0.82
2022-09-01T18:55:31.373Z,0.93
2022-09-01T18:58:03.834Z,1.00
2022-09-01T19:01:12.686Z,0.68
2022-09-01T19:03:42.480Z,0.85
2022-09-01T19:06:41.944Z,1.15
2022-09-01T19:09:20.982Z,0.60
2022-09-01T19:11:54.037Z,0.85
2022-09-01T19:14:53.769Z,0.70
2022-09-01T19:17:21.190Z,1.23
2022-09-01T19:20:11.848Z,0.60
2022-09-01T19:23:19.337Z,0.82
2022-09-01T19:25:46.301Z,0.70
2022-09-01T19:28:32.933Z,0.82
2022-09-01T19:31:20.629Z,0.70
2022-09-01T19:33:53.958Z,1.02
2022-09-01T19:36:39.866Z,2.35
2022-09-01T19:39:29.211Z,0.82
2022-09-01T19:42:23.752Z,0.70
2022-09-01T19:45:12.644Z,0.80
2022-09-01T19:47:50.650Z,0.82
2022-09-01T19:50:42.779Z,0.95
2022-09-01T19:53:29.996Z,1.25
2022-09-01T19:59:47.598Z,0.80
2022-09-01T20:02:32.214Z,0.80
2022-09-01T20:05:34.850Z,1.17
2022-09-01T20:08:08.133Z,1.10
2022-09-01T20:11:18.945Z,1.55
2022-09-01T20:14:01.449Z,1.00
2022-09-01T20:16:49.750Z,1.20
2022-09-01T20:19:24.893Z,1.20
2022-09-01T20:21:51.766Z,0.95
2022-09-01T20:24:34.531Z,1.20
2022-09-01T20:27:35.838Z,1.00
2022-09-01T20:30:28.845Z,1.20
2022-09-01T20:33:05.443Z,0.88
2022-09-01T20:36:08.746Z,1.10
2022-09-01T20:39:06.045Z,1.20
2022-09-01T20:41:45.638Z,1.02
2022-09-01T20:44:35.943Z,1.08
2022-09-01T20:47:40.025Z,0.90
2022-09-01T20:50:14.144Z,1.00
2022-09-01T20:53:02.177Z,1.35
2022-09-01T20:55:47.809Z,1.15
2022-09-01T20:58:33.012Z,1.10
2022-09-01T21:01:32.358Z,1.15
2022-09-01T21:04:18.880Z,1.45
2022-09-01T21:07:00.682Z,0.77
2022-09-01T21:09:47.850Z,0.85
2022-09-01T21:12:22.574Z,0.90
2022-09-01T21:15:27.919Z,1.23
2022-09-01T21:18:32.781Z,0.95
2022-09-01T21:21:17.664Z,0.80
2022-09-01T21:23:44.591Z,1.20
2022-09-01T21:26:11.760Z,0.90
2022-09-01T21:29:16.434Z,0.80
2022-09-01T21:31:43.911Z,1.00
2022-09-01T21:34:13.797Z,1.08
2022-09-01T21:36:43.618Z,1.08
2022-09-01T21:39:10.536Z,0.95
2022-09-01T21:41:39.373Z,1.10
2022-09-01T21:44:06.555Z,0.80
2022-09-01T21:46:33.742Z,1.00
2022-09-01T21:49:00.665Z,1.00
2022-09-01T21:51:46.555Z,0.80
2022-09-01T21:54:13.620Z,0.50
2022-09-01T21:56:40.791Z,0.98
2022-09-01T21:59:07.863Z,0.82
2022-09-01T22:02:12.647Z,0.60
2022-09-01T22:04:39.898Z,0.80
2022-09-01T22:07:27.056Z,0.90
2022-09-01T22:09:54.179Z,0.80
2022-09-01T22:12:21.014Z,0.93
2022-09-01T22:14:47.841Z,1.52
2022-09-01T22:17:14.822Z,1.00
2022-09-01T22:19:41.706Z,1.13
2022-09-01T22:22:31.802Z,1.15
2022-09-01T22:24:58.907Z,0.80
2022-09-01T22:28:03.506Z,0.80
2022-09-01T22:30:31.090Z,1.00
2022-09-01T22:32:58.152Z,1.45
2022-09-01T22:35:24.965Z,1.10
2022-09-01T22:37:51.979Z,1.23
2022-09-01T22:40:19.846Z,1.10
2022-09-01T22:42:47.243Z,0.90
2022-09-01T22:45:15.516Z,1.02
2022-09-01T22:47:42.567Z,0.80
2022-09-01T22:50:10.061Z,1.08
2022-09-01T22:52:55.467Z,0.90
2022-09-01T22:55:24.621Z,1.30
2022-09-01T22:57:51.664Z,0.85
2022-09-01T23:00:18.478Z,1.10
2022-09-01T23:02:45.403Z,0.90
2022-09-01T23:05:12.415Z,0.93
2022-09-01T23:07:39.591Z,0.90
2022-09-01T23:10:08.414Z,0.90
2022-09-01T23:12:35.280Z,1.05
2022-09-01T23:15:02.144Z,1.00
2022-09-01T23:17:29.018Z,0.93
2022-09-01T23:19:58.991Z,1.63
2022-09-01T23:22:25.873Z,1.27
2022-09-01T23:24:52.815Z,1.02
2022-09-01T23:27:19.737Z,0.95
2022-09-01T23:29:46.989Z,1.10
2022-09-01T23:32:32.774Z,1.10
2022-09-01T23:35:00.071Z,1.30
2022-09-01T23:37:28.078Z,1.27
2022-09-01T23:39:55.294Z,1.02
2022-09-01T23:42:22.721Z,0.95
2022-09-01T23:44:50.258Z,1.10
2022-09-01T23:47:17.336Z,0.70
2022-09-01T23:49:44.284Z,1.00
2022-09-01T23:52:11.260Z,1.25
2022-09-01T23:54:38.203Z,1.00
2022-09-01T23:57:05.274Z,1.17
2022-09-01T23:59:32.327Z,1.25
